createdAt,value
2023-03-22T00:04:16.487Z,3.73
2023-03-22T00:09:18.704Z,4.73
2023-03-22T00:14:21.210Z,3.73
2023-03-22T00:19:23.401Z,5.00
2023-03-22T00:24:25.557Z,4.90
2023-03-22T00:29:27.924Z,4.00
2023-03-22T00:34:34.378Z,3.43
2023-03-22T00:39:38.186Z,3.07
2023-03-22T00:44:42.020Z,3.37
2023-03-22T00:49:44.407Z,4.20
2023-03-22T00:54:47.716Z,5.73
2023-03-22T00:59:50.449Z,4.73
2023-03-22T01:04:54.206Z,5.13
2023-03-22T01:09:57.676Z,10.20
2023-03-22T01:15:00.083Z,7.60
2023-03-22T01:20:02.592Z,8.03
2023-03-22T01:25:05.772Z,3.87
2023-03-22T01:30:09.164Z,3.60
2023-03-22T01:35:11.587Z,4.67
2023-03-22T01:40:16.353Z,3.50
2023-03-22T01:45:41.579Z,5.03
2023-03-22T01:50:56.282Z,4.07
2023-03-22T01:56:00.301Z,5.20
2023-03-22T02:01:09.133Z,8.33
2023-03-22T02:06:24.966Z,4.00
2023-03-22T02:11:44.142Z,5.73
2023-03-22T02:17:39.130Z,3.63
2023-03-22T02:23:23.040Z,4.87
2023-03-22T02:28:49.548Z,4.37
2023-03-22T02:34:27.156Z,4.43
2023-03-22T02:39:55.633Z,4.47
2023-03-22T02:45:15.469Z,3.83
2023-03-22T02:50:29.010Z,3.23
2023-03-22T02:55:48.694Z,3.20
2023-03-22T03:00:57.566Z,4.67
2023-03-22T03:06:08.573Z,7.33
2023-03-22T03:11:11.207Z,9.23
2023-03-22T03:16:17.328Z,4.47
2023-03-22T03:21:25.614Z,3.77
2023-03-22T03:26:44.020Z,5.07
2023-03-22T03:32:02.144Z,6.67
2023-03-22T03:37:14.448Z,3.87
2023-03-22T03:42:19.099Z,3.80
2023-03-22T03:47:23.076Z,4.77
2023-03-22T03:52:26.556Z,3.80
2023-03-22T03:57:28.692Z,3.50
2023-03-22T04:02:31.035Z,3.90
2023-03-22T04:07:35.730Z,4.70
2023-03-22T04:12:38.603Z,7.07
2023-03-22T04:17:54.017Z,2.97
2023-03-22T04:23:00.379Z,3.87
2023-03-22T04:28:04.413Z,4.90
2023-03-22T04:33:11.638Z,4.80
2023-03-22T04:38:43.577Z,5.40
2023-03-22T04:43:52.215Z,3.13
2023-03-22T04:48:54.877Z,3.90
2023-03-22T04:53:58.648Z,4.80
2023-03-22T04:59:01.419Z,5.50
2023-03-22T05:04:04.363Z,5.00
2023-03-22T05:09:07.277Z,4.50
2023-03-22T05:14:10.366Z,6.23
2023-03-22T05:19:16.201Z,4.40
2023-03-22T05:24:23.064Z,4.00
2023-03-22T05:29:27.151Z,6.27
2023-03-22T05:34:41.977Z,4.13
2023-03-22T05:39:55.222Z,3.90
2023-03-22T05:45:04.216Z,5.20
2023-03-22T05:50:14.296Z,6.20
2023-03-22T05:55:17.949Z,4.90
2023-03-22T06:00:22.279Z,5.90
2023-03-22T06:05:50.931Z,5.70
2023-03-22T06:10:56.049Z,4.90
2023-03-22T06:16:04.952Z,4.80
2023-03-22T06:21:07.537Z,4.03
2023-03-22T06:26:11.569Z,6.47
2023-03-22T06:31:15.512Z,6.67
2023-03-22T06:36:23.530Z,4.20
2023-03-22T06:41:46.030Z,5.57
2023-03-22T06:46:48.897Z,4.00
2023-03-22T06:52:05.543Z,6.43
2023-03-22T06:57:09.377Z,6.33
2023-03-22T07:02:13.484Z,3.67
2023-03-22T07:07:19.677Z,9.07
2023-03-22T07:12:21.929Z,6.10
2023-03-22T07:17:24.953Z,4.00
2023-03-22T07:22:27.848Z,4.80
2023-03-22T07:27:30.398Z,5.73
2023-03-22T07:32:33.083Z,6.67
2023-03-22T07:37:41.713Z,4.17
2023-03-22T07:42:55.778Z,3.73
2023-03-22T07:48:24.521Z,7.13
2023-03-22T07:53:45.792Z,3.57
2023-03-22T07:58:48.437Z,3.80
2023-03-22T08:03:51.506Z,2.77
2023-03-22T08:09:20.876Z,2.00
2023-03-22T08:14:34.045Z,2.03
2023-03-22T08:19:39.676Z,1.30
2023-03-22T08:24:45.718Z,1.93
2023-03-22T08:29:59.369Z,1.70
2023-03-22T08:35:05.037Z,2.20
2023-03-22T08:40:10.061Z,1.30
2023-03-22T08:45:17.332Z,1.50
2023-03-22T08:50:27.750Z,1.30
2023-03-22T08:55:45.037Z,1.73
2023-03-22T09:00:49.807Z,1.87
2023-03-22T09:06:00.626Z,3.20
2023-03-22T09:11:12.617Z,2.03
2023-03-22T09:16:15.384Z,2.00
2023-03-22T09:21:19.106Z,1.10
2023-03-22T09:26:28.610Z,1.90
2023-03-22T09:31:31.156Z,1.67
2023-03-22T09:36:45.592Z,2.40
2023-03-22T09:41:53.689Z,1.47
2023-03-22T09:47:00.118Z,1.67
2023-03-22T09:52:02.990Z,2.30
2023-03-22T09:57:34.381Z,1.73
2023-03-22T10:03:12.823Z,2.83
2023-03-22T10:08:37.090Z,1.70
2023-03-22T10:14:00.635Z,5.10
2023-03-22T10:19:33.975Z,2.73
2023-03-22T10:24:38.994Z,2.03
2023-03-22T10:29:46.810Z,1.20
2023-03-22T10:34:49.674Z,2.70
2023-03-22T10:40:00.511Z,2.60
2023-03-22T10:45:29.577Z,2.60
2023-03-22T10:50:39.859Z,2.07
2023-03-22T10:55:44.404Z,2.33
2023-03-22T11:00:55.219Z,1.80
2023-03-22T11:06:10.864Z,2.50
2023-03-22T11:11:27.939Z,2.07
2023-03-22T11:16:32.203Z,2.67
2023-03-22T11:21:34.466Z,1.70
2023-03-22T11:26:40.889Z,1.87
2023-03-22T11:31:59.212Z,1.80
2023-03-22T11:37:02.117Z,2.40
2023-03-22T11:42:07.028Z,2.83
2023-03-22T11:47:13.329Z,2.40
2023-03-22T11:52:24.959Z,2.83
2023-03-22T11:57:34.954Z,1.97
2023-03-22T12:02:55.551Z,3.10
2023-03-22T12:08:42.929Z,1.83
2023-03-22T12:14:02.377Z,2.03
2023-03-22T12:19:43.698Z,1.60
2023-03-22T12:24:46.333Z,2.20
2023-03-22T12:29:58.737Z,1.83
2023-03-22T12:35:18.095Z,1.60
2023-03-22T12:40:31.925Z,2.63
2023-03-22T12:45:41.337Z,1.43
2023-03-22T12:51:00.439Z,1.60
2023-03-22T12:56:03.700Z,1.80
2023-03-22T13:01:24.303Z,2.80
2023-03-22T13:06:34.182Z,2.23
2023-03-22T13:11:36.788Z,2.13
2023-03-22T13:16:56.927Z,1.87
2023-03-22T13:22:27.786Z,3.17
2023-03-22T13:28:02.985Z,1.90
2023-03-22T13:33:09.710Z,1.63
2023-03-22T13:38:35.344Z,2.60
2023-03-22T13:43:51.330Z,2.07
2023-03-22T13:49:02.764Z,1.80
2023-03-22T13:54:15.052Z,2.73
2023-03-22T13:59:27.269Z,2.20
2023-03-22T14:04:42.539Z,3.27
2023-03-22T14:09:54.620Z,2.57
2023-03-22T14:15:02.588Z,1.70
2023-03-22T14:20:10.767Z,2.00
